Flight Track Log - Related Links

Times and Time Zones

All times are in EDT time to prevent confusion due to time zone crossing. See the N352VA flight status page for this flight to view local times or setup timezone preferences in your user account.


Time Position Orientation Groundspeed Altitude Reporting Facility
EDT Latitude Longitude Course Direction KTS MPH feet Rate Location/Type
Fri 08:23:38 AM 39.3667 -84.5000 123° Southeast 123 142 1,200  Level Cincinnati TRACON
Fri 08:24:56 AM 39.3500 -84.4667 123° Southeast 79 91 2,000 609 Climbing Cincinnati TRACON
Fri 08:25:56 AM 39.3500 -84.4500 90° East 83 96 2,600 500 Climbing Cincinnati TRACON
Fri 08:26:56 AM 39.3333 -84.4167 123° Southeast 91 105 3,000 321 Climbing Cincinnati TRACON
Fri 08:27:48 AM 39.3297 -84.3850 98° East 103 119 3,200 341 Climbing Indianapolis Center
Fri 08:28:24 AM 39.3267 -84.3633 100° East 96 110 3,500 490 Climbing Indianapolis Center
Fri 08:29:26 AM 39.3242 -84.3267 95° East 100 115 4,000 435 Climbing Indianapolis Center
Fri 08:30:28 AM 39.3219 -84.2892 94° East 103 119 4,400 435 Climbing Indianapolis Center
Fri 08:31:30 AM 39.3211 -84.2525 92° East 103 119 4,900 435 Climbing Indianapolis Center
Fri 08:32:32 AM 39.3244 -84.2164 83° East 102 117 5,300 442 Climbing Indianapolis Center
Fri 08:33:05 AM 39.3239 -84.1953 92° East 103 119 5,600 483 Climbing Indianapolis Center
Fri 08:33:59 AM 39.3225 -84.1600 93° East 107 123 6,000 333 Climbing Indianapolis Center
Fri 08:34:35 AM 39.3228 -84.1397 89° East 105 121 6,100 367 Climbing Indianapolis Center
Fri 08:35:37 AM 39.3228 -84.1028 90° East 104 120 6,600 457 Climbing Indianapolis Center
Fri 08:36:07 AM 39.3228 -84.0764 90° East 108 124 6,800 387 Climbing Indianapolis Center
Fri 08:36:39 AM 39.3225 -84.0550 91° East 109 125 7,000 383 Climbing Indianapolis Center
Fri 08:37:41 AM 39.3253 -84.0158 85° East 110 127 7,400 387 Climbing Indianapolis Center
Fri 08:38:43 AM 39.3242 -83.9775 92° East 107 123 7,800 339 Climbing Indianapolis Center
Fri 08:39:45 AM 39.3231 -83.9378 92° East 109 125 8,100 341 Climbing Indianapolis Center
Fri 08:40:46 AM 39.3217 -83.8981 93° East 109 125 8,500 390 Climbing Indianapolis Center
Fri 08:41:48 AM 39.3236 -83.8594 86° East 107 123 8,900 242 Climbing Indianapolis Center
Fri 08:42:50 AM 39.3253 -83.8208 87° East 107 123 9,000 48 Climbing Indianapolis Center
Fri 08:43:52 AM 39.3225 -83.7756 95° East 121 139 9,000  Level Indianapolis Center
Fri 08:44:54 AM 39.3175 -83.7244 97° East 123 142 9,000  Level Indianapolis Center
Fri 08:45:56 AM 39.3164 -83.6803 92° East 123 142 9,000  Level Indianapolis Center
Fri 08:46:58 AM 39.3178 -83.6386 88° East 118 136 9,000  Level Indianapolis Center
Fri 08:48:00 AM 39.3217 -83.5967 83° East 117 135 9,000  Level Indianapolis Center
Fri 08:49:01 AM 39.3214 -83.5517 90° East 121 139 9,000  Level Indianapolis Center
Fri 08:50:03 AM 39.3194 -83.5092 93° East 119 137 9,000  Level Indianapolis Center
Fri 08:51:05 AM 39.3189 -83.4661 91° East 119 137 9,000  Level Indianapolis Center
Fri 08:52:07 AM 39.3189 -83.4181 90° East 115 132 9,000  Level Indianapolis Center
Fri 08:53:09 AM 39.3178 -83.3742 92° East 119 137 9,000  Level Indianapolis Center
Fri 08:54:11 AM 39.3172 -83.3317 91° East 119 137 9,000  Level Indianapolis Center
Fri 08:55:13 AM 39.3164 -83.2906 91° East 116 133 9,000  Level Indianapolis Center
Fri 08:56:15 AM 39.3158 -83.2475 91° East 118 136 9,000  Level Indianapolis Center
Fri 08:57:17 AM 39.3133 -83.2033 94° East 120 138 9,000 -48 Level Indianapolis Center
Fri 08:58:19 AM 39.3136 -83.1589 90° East 122 140 8,900  Descending Indianapolis Center
Fri 08:59:21 AM 39.3128 -83.1083 91° East 121 139 9,000 48 Climbing Indianapolis Center
Fri 09:00:23 AM 39.3111 -83.0653 93° East 119 137 9,000  Level Indianapolis Center
Fri 09:01:25 AM 39.3106 -83.0203 91° East 122 140 9,000 -48 Level Indianapolis Center
Fri 09:02:27 AM 39.3097 -82.9761 91° East 123 142 8,900  Descending Indianapolis Center
Fri 09:03:29 AM 39.3083 -82.9331 92° East 120 138 9,000 48 Climbing Indianapolis Center
Fri 09:04:31 AM 39.3125 -82.8911 83° East 118 136 9,000 48 Level Indianapolis Center
Fri 09:05:33 AM 39.3125 -82.8478 90° East 119 137 9,100  Climbing Indianapolis Center
Fri 09:06:34 AM 39.3100 -82.8036 94° East 122 140 9,000 -49 Descending Indianapolis Center
Fri 09:07:36 AM 39.3092 -82.7519 91° East 122 140 9,000  Level Indianapolis Center
Fri 09:08:38 AM 39.3089 -82.7083 90° East 121 139 9,000  Level Indianapolis Center
Fri 09:09:40 AM 39.3069 -82.6633 93° East 124 143 9,000  Level Indianapolis Center
Fri 09:10:42 AM 39.3061 -82.6186 91° East 123 142 9,000  Level Indianapolis Center
Fri 09:11:44 AM 39.3056 -82.5742 91° East 123 142 9,000 48 Level Indianapolis Center
Fri 09:12:47 AM 39.3050 -82.5294 91° East 123 142 9,100  Climbing Indianapolis Center
Fri 09:13:49 AM 39.3044 -82.4850 91° East 123 142 9,000  Descending Indianapolis Center
Fri 09:14:51 AM 39.3022 -82.4417 94° East 121 139 9,100 48 Climbing Indianapolis Center
Fri 09:15:53 AM 39.3017 -82.3914 91° East 119 137 9,100 -48 Level Indianapolis Center
Fri 09:16:55 AM 39.3008 -82.3478 91° East 120 138 9,000 -48 Descending Indianapolis Center
Fri 09:17:57 AM 39.2994 -82.3056 92° East 119 137 9,000  Level Indianapolis Center
Fri 09:18:59 AM 39.2981 -82.2614 92° East 122 140 9,000  Level Indianapolis Center
Fri 09:20:01 AM 39.2967 -82.2172 92° East 123 142 9,000  Level Indianapolis Center
Fri 09:21:03 AM 39.2961 -82.1728 91° East 124 143 9,000  Level Indianapolis Center
Fri 09:22:05 AM 39.2944 -82.1208 92° East 122 140 9,000  Level Indianapolis Center
Fri 09:23:07 AM 39.2958 -82.0792 88° East 117 135 9,000  Level Indianapolis Center
Fri 09:24:09 AM 39.2958 -82.0361 90° East 119 137 9,000  Level Indianapolis Center
Fri 09:25:11 AM 39.2942 -81.9944 93° East 118 136 9,000 48 Level Indianapolis Center
Fri 09:26:13 AM 39.2919 -81.9517 94° East 117 135 9,100  Climbing Indianapolis Center
Fri 09:27:15 AM 39.2919 -81.9097 90° East 118 136 9,000 -48 Descending Indianapolis Center
Fri 09:28:17 AM 39.2903 -81.8661 93° East 121 139 9,000  Level Indianapolis Center
Fri 09:29:19 AM 39.2883 -81.8147 93° East 120 138 9,000 -48 Level Indianapolis Center
Fri 09:30:21 AM 39.2867 -81.7717 93° East 120 138 8,900 -48 Descending Indianapolis Center
Fri 09:31:23 AM 39.2856 -81.7278 92° East 122 140 8,900 48 Level Indianapolis Center
Fri 09:32:25 AM 39.2850 -81.6847 91° East 119 137 9,000 48 Climbing Indianapolis Center
Fri 09:33:27 AM 39.2836 -81.6428 92° East 118 136 9,000  Level Indianapolis Center
Fri 09:34:29 AM 39.2819 -81.6014 93° East 116 133 9,000  Level Indianapolis Center
Fri 09:35:31 AM 39.2814 -81.5575 91° East 122 140 9,000  Level Indianapolis Center
Fri 09:36:33 AM 39.2794 -81.5061 93° East 119 137 9,000  Level Indianapolis Center
Fri 09:37:36 AM 39.2775 -81.4633 93° East 119 137 9,000  Level Indianapolis Center
Fri 09:38:38 AM 39.2761 -81.4225 93° East 115 132 9,000  Level Indianapolis Center
Fri 09:39:40 AM 39.2744 -81.3806 93° East 116 133 9,000  Level Indianapolis Center
Fri 09:40:42 AM 39.2736 -81.3397 91° East 115 132 9,000  Level Indianapolis Center
Fri 09:41:44 AM 39.2744 -81.2981 89° East 115 132 9,000  Level Indianapolis Center
Fri 09:42:46 AM 39.2772 -81.2572 85° East 115 132 9,000  Level Indianapolis Center
Fri 09:43:48 AM 39.2728 -81.2097 97° East 111 128 9,000 -48 Level Indianapolis Center
Fri 09:44:50 AM 39.2719 -81.1678 91° East 114 131 8,900 -48 Descending Indianapolis Center
Fri 09:45:52 AM 39.2711 -81.1278 92° East 112 129 8,900 48 Level Indianapolis Center
Fri 09:46:54 AM 39.2697 -81.0875 93° East 112 129 9,000 48 Climbing Indianapolis Center
Fri 09:47:56 AM 39.2689 -81.0489 92° East 109 125 9,000  Level Indianapolis Center
Fri 09:48:58 AM 39.2678 -81.0089 92° East 111 128 9,000 -48 Level Indianapolis Center
Fri 09:50:00 AM 39.2647 -80.9608 95° East 111 128 8,900 -48 Descending Indianapolis Center
Fri 09:51:02 AM 39.2631 -80.9194 93° East 114 131 8,900 48 Level Indianapolis Center
Fri 09:52:04 AM 39.2628 -80.8792 90° East 113 130 9,000 48 Climbing Indianapolis Center
Fri 09:53:06 AM 39.2619 -80.8389 92° East 112 129 9,000 -48 Level Indianapolis Center
Fri 09:54:08 AM 39.2600 -80.7983 94° East 113 130 8,900 -48 Descending Indianapolis Center
Fri 09:55:10 AM 39.2589 -80.7569 92° East 115 132 8,900 48 Level Indianapolis Center
Fri 09:56:12 AM 39.2569 -80.7181 94° East 111 128 9,000 48 Climbing Indianapolis Center
Fri 09:57:14 AM 39.2569 -80.6703 90° East 110 127 9,000 -48 Level Indianapolis Center
Fri 09:58:16 AM 39.2542 -80.6289 95° East 114 131 8,900 -48 Descending Indianapolis Center
Fri 09:59:18 AM 39.2519 -80.5875 94° East 115 132 8,900  Level Indianapolis Center
Fri 10:00:21 AM 39.2506 -80.5461 92° East 115 132 8,900  Level Indianapolis Center
Fri 10:01:23 AM 39.2494 -80.5058 92° East 114 131 8,900 48 Level Indianapolis Center
Fri 10:02:25 AM 39.2489 -80.4667 91° East 111 128 9,000 48 Climbing Indianapolis Center
Fri 10:03:27 AM 39.2478 -80.4181 92° East 112 129 9,000  Level Indianapolis Center
Fri 10:05:00 AM 39.2465 -80.3555 91° East  Level FlightAware Approximate
Fri 10:12:00 AM 39.2403 -80.0728 92° East  Level FlightAware Approximate
Fri 10:13:00 AM 39.2394 -80.0324 92° East  Level FlightAware Approximate
Fri 10:14:00 AM 39.2385 -79.9920 92° East  Level FlightAware Approximate
Fri 10:15:00 AM 39.2375 -79.9516 92° East  Level FlightAware Approximate
Fri 10:16:00 AM 39.2365 -79.9113 92° East  Level FlightAware Approximate
Fri 10:17:00 AM 39.2355 -79.8709 92° East  Level FlightAware Approximate
Fri 10:18:00 AM 39.2345 -79.8305 92° East  Level FlightAware Approximate
Fri 10:19:00 AM 39.2335 -79.7902 92° East  Level FlightAware Approximate
Fri 10:20:00 AM 39.2310 -79.7498 95° East  Level FlightAware Approximate
Fri 10:20:29 AM 39.2278 -79.7342 95° East 106 122 9,000  Level Washington Center
Fri 10:21:00 AM 39.2282 -79.7096 95° East  Level FlightAware Approximate
Fri 10:21:30 AM 39.2250 -79.6936 95° East 101 116 9,100  Level Washington Center
Fri 10:22:00 AM 39.2254 -79.6694 95° East  Level FlightAware Approximate
Fri 10:22:30 AM 39.2222 -79.6533 95° East 106 122 9,100  Level Washington Center
Fri 10:23:00 AM 39.2225 -79.6292 95° East  Level FlightAware Approximate
Fri 10:23:30 AM 39.2214 -79.6158 92° East 106 122 9,100  Level Washington Center
Fri 10:24:00 AM 39.2197 -79.5890 95° East  Level FlightAware Approximate
Fri 10:24:29 AM 39.2186 -79.5728 95° East 106 122 9,000  Level Washington Center
Fri 10:25:29 AM 39.2178 -79.5353 92° East 106 122 9,000  Level Washington Center
Fri 10:26:30 AM 39.2150 -79.4950 95° East 106 122 9,000  Level Washington Center
Fri 10:27:30 AM 39.2119 -79.4544 96° East 106 122 9,000  Level Washington Center
Fri 10:28:28 AM 39.2111 -79.4142 92° East 106 122 9,000  Level Washington Center
Fri 10:29:29 AM 39.2083 -79.3739 95° East 106 122 9,000  Level Washington Center
Fri 10:30:29 AM 39.2075 -79.3336 92° East 106 122 9,000 -50 Level Washington Center
Fri 10:31:30 AM 39.2044 -79.2961 96° East 106 122 8,900  Descending Washington Center
Fri 10:32:28 AM 39.2036 -79.2533 91° East 106 122 9,000 51 Climbing Washington Center
Fri 10:33:28 AM 39.1967 -79.2100 102° East 106 122 9,000  Level Washington Center
Fri 10:34:29 AM 39.1958 -79.1725 92° East 106 122 9,000  Level Washington Center
Fri 10:35:29 AM 39.1947 -79.1322 92° East 106 122 9,000 -99 Level Washington Center
Fri 10:36:30 AM 39.1919 -79.0919 95° East 106 122 8,800 -248 Descending Washington Center
Fri 10:37:30 AM 39.1911 -79.0489 91° East 106 122 8,500 -350 Descending Washington Center
Fri 10:38:30 AM 39.1881 -79.0086 96° East 106 122 8,100 -356 Descending Washington Center
Fri 10:39:28 AM 39.1850 -78.9656 95° East 106 122 7,800 -254 Descending Washington Center
Fri 10:40:28 AM 39.1842 -78.9228 91° East 106 122 7,600 -248 Descending Washington Center
Fri 10:41:29 AM 39.1811 -78.8797 95° East 112 129 7,300 -344 Descending Washington Center
Fri 10:42:30 AM 39.1803 -78.8369 91° East 112 129 6,900 -347 Descending Washington Center
Fri 10:43:30 AM 39.1772 -78.7914 95° East 118 136 6,600 -356 Descending Washington Center
Fri 10:44:28 AM 39.1764 -78.7511 92° East 118 136 6,200 -303 Descending Washington Center
Fri 10:45:29 AM 39.1733 -78.7081 95° East 118 136 6,000 -197 Descending Washington Center
Fri 10:46:30 AM 39.1700 -78.6678 96° East 118 136 5,800 -252 Descending Washington Center
Fri 10:47:28 AM 39.1692 -78.6250 91° East 118 136 5,500 -254 Descending Washington Center
Fri 10:48:28 AM 39.1661 -78.5819 95° East 118 136 5,300 -246 Descending Washington Center
Fri 10:49:30 AM 39.1628 -78.5417 96° East 118 136 5,000 -295 Descending Washington Center
Fri 10:50:30 AM 39.1597 -78.4986 95° East 118 136 4,700 -305 Descending Washington Center
Fri 10:51:28 AM 39.1606 -78.4586 88° East 118 136 4,400 -284 Descending Washington Center
Fri 10:53:19 AM 39.1500 -78.3833 100° East 105 121 3,900 -270 Descending Potomac TRACON
Fri 10:55:00 AM 39.1500 -78.3155 90° East  Level FlightAware Approximate
Fri 11:02:00 AM 39.1435 -78.1444 90° East  Level Estimated
Fri 11:03:00 AM 39.1435 -78.1444 90° East  Level Estimated
Fri 11:04:00 AM 39.1435 -78.1444 90° East  Level Estimated
Fri 11:05:00 AM 39.1435 -78.1444 90° East  Level Estimated
Fri 11:06:00 AM 39.1435 -78.1444 90° East  Level Estimated
Fri 11:07:00 AM 39.1435 -78.1444 90° East  Level Estimated
Fri 11:08:00 AM 39.1435 -78.1444 90° East  Level Estimated
Fri 11:09:00 AM 39.1435 -78.1444 90° East  Level Estimated

Login

Don't have an account? Register now (free) for customized features, flight alerts, and more!